createdAt,value
2022-08-26T00:01:53.759Z,10.57
2022-08-26T00:04:21.460Z,11.25
2022-08-26T00:06:48.413Z,10.70
2022-08-26T00:09:15.882Z,10.93
2022-08-26T00:11:44.355Z,11.07
2022-08-26T00:14:13.802Z,11.25
2022-08-26T00:16:47.762Z,11.40
2022-08-26T00:19:17.050Z,11.13
2022-08-26T00:21:44.045Z,10.75
2022-08-26T00:24:10.761Z,11.27
2022-08-26T00:26:37.504Z,10.90
2022-08-26T00:29:04.453Z,10.55
2022-08-26T00:31:32.489Z,10.82
2022-08-26T00:33:59.552Z,10.93
2022-08-26T00:36:30.009Z,11.07
2022-08-26T00:38:57.552Z,11.52
2022-08-26T00:41:24.339Z,11.02
2022-08-26T00:43:51.480Z,11.10
2022-08-26T00:46:29.231Z,10.88
2022-08-26T00:49:12.074Z,11.50
2022-08-26T00:51:52.320Z,11.13
2022-08-26T00:54:23.965Z,11.50
2022-08-26T00:57:15.819Z,11.10
2022-08-26T00:59:52.450Z,11.05
2022-08-26T01:02:20.959Z,11.13
2022-08-26T01:04:54.318Z,11.05
2022-08-26T01:07:24.480Z,11.00
2022-08-26T01:09:51.348Z,10.73
2022-08-26T01:12:22.053Z,10.63
2022-08-26T01:14:50.062Z,11.07
2022-08-26T01:17:17.304Z,10.88
2022-08-26T01:19:58.656Z,11.50
2022-08-26T01:22:55.399Z,10.32
2022-08-26T01:25:25.093Z,10.95
2022-08-26T01:27:53.106Z,10.88
2022-08-26T01:30:21.097Z,10.68
2022-08-26T01:32:49.994Z,10.75
2022-08-26T01:35:16.816Z,10.80
2022-08-26T01:37:48.090Z,10.45
2022-08-26T01:40:20.773Z,10.88
2022-08-26T01:42:49.151Z,10.95
2022-08-26T01:45:29.057Z,11.13
2022-08-26T01:47:59.829Z,10.40
2022-08-26T01:50:31.642Z,10.32
2022-08-26T01:53:03.078Z,10.90
2022-08-26T01:55:33.499Z,10.93
2022-08-26T01:58:06.494Z,11.30
2022-08-26T02:00:34.941Z,11.05
2022-08-26T02:03:17.039Z,11.20
2022-08-26T02:05:53.297Z,11.20
2022-08-26T02:08:35.443Z,11.30
2022-08-26T02:11:02.294Z,10.95
2022-08-26T02:13:31.681Z,10.90
2022-08-26T02:16:01.065Z,10.38
2022-08-26T02:18:30.403Z,11.20
2022-08-26T02:20:57.342Z,10.85
2022-08-26T02:23:24.637Z,10.88
2022-08-26T02:26:02.842Z,10.95
2022-08-26T02:28:34.413Z,10.20
2022-08-26T02:31:02.557Z,11.38
2022-08-26T02:33:29.972Z,11.25
2022-08-26T02:35:57.769Z,11.43
2022-08-26T02:38:24.537Z,11.38
2022-08-26T02:40:51.314Z,10.45
2022-08-26T02:43:18.124Z,10.75
2022-08-26T02:45:45.875Z,10.70
2022-08-26T02:48:16.954Z,10.30
2022-08-26T02:50:45.742Z,10.30
2022-08-26T02:53:12.595Z,10.60
2022-08-26T02:55:42.319Z,10.70
2022-08-26T02:58:09.821Z,10.43
2022-08-26T03:00:38.425Z,9.80
2022-08-26T03:03:06.393Z,10.98
2022-08-26T03:05:33.618Z,10.38
2022-08-26T03:08:01.778Z,10.55
2022-08-26T03:10:31.471Z,10.23
2022-08-26T03:13:00.576Z,10.10
2022-08-26T03:15:32.452Z,10.48
2022-08-26T03:17:59.510Z,13.38
2022-08-26T03:20:26.250Z,9.97
2022-08-26T03:22:53.390Z,10.18
2022-08-26T03:25:23.202Z,10.15
2022-08-26T03:27:50.568Z,10.02
2022-08-26T03:30:36.452Z,9.98
2022-08-26T03:33:03.287Z,10.38
2022-08-26T03:35:32.024Z,10.20
2022-08-26T03:37:59.205Z,11.05
2022-08-26T03:40:29.087Z,11.07
2022-08-26T03:42:56.032Z,10.60
2022-08-26T03:45:22.913Z,10.85
2022-08-26T03:47:49.692Z,11.10
2022-08-26T03:50:22.524Z,10.57
2022-08-26T03:52:51.779Z,10.52
2022-08-26T03:55:20.207Z,10.48
2022-08-26T03:57:51.046Z,11.02
2022-08-26T04:00:18.759Z,10.10
2022-08-26T04:02:48.710Z,11.00
2022-08-26T04:05:17.837Z,10.20
2022-08-26T04:07:45.927Z,11.15
2022-08-26T04:10:15.665Z,10.37
2022-08-26T04:12:47.062Z,10.77
2022-08-26T04:15:17.778Z,9.57
2022-08-26T04:17:44.828Z,10.95
2022-08-26T04:20:16.255Z,11.63
2022-08-26T04:22:43.262Z,9.80
2022-08-26T04:25:10.713Z,10.40
2022-08-26T04:27:37.550Z,10.20
2022-08-26T04:30:05.645Z,10.85
2022-08-26T04:32:35.632Z,11.23
2022-08-26T04:35:04.566Z,11.20
2022-08-26T04:37:31.487Z,11.82
2022-08-26T04:39:59.522Z,10.88
2022-08-26T04:42:26.355Z,11.38
2022-08-26T04:44:53.307Z,11.27
2022-08-26T04:47:20.017Z,10.90
2022-08-26T04:49:46.785Z,10.80
2022-08-26T04:52:13.537Z,10.80
2022-08-26T04:54:42.024Z,11.18
2022-08-26T04:57:09.152Z,11.35
2022-08-26T04:59:39.170Z,11.32
2022-08-26T05:02:07.091Z,11.40
2022-08-26T05:04:34.514Z,12.38
2022-08-26T05:07:02.650Z,11.95
2022-08-26T05:09:29.937Z,11.63
2022-08-26T05:11:57.305Z,11.63
2022-08-26T05:14:24.230Z,11.77
2022-08-26T05:16:51.201Z,11.93
2022-08-26T05:19:19.239Z,11.50
2022-08-26T05:21:47.863Z,12.40
2022-08-26T05:24:15.222Z,12.35
2022-08-26T05:26:41.942Z,12.02
2022-08-26T05:29:11.629Z,12.32
2022-08-26T05:31:38.479Z,12.48
2022-08-26T05:34:06.003Z,12.77
2022-08-26T05:36:35.738Z,11.45
2022-08-26T05:39:05.272Z,13.10
2022-08-26T05:41:36.769Z,12.68
2022-08-26T05:44:09.375Z,12.40
2022-08-26T05:46:37.915Z,12.23
2022-08-26T05:49:06.070Z,12.43
2022-08-26T05:51:40.939Z,12.40
2022-08-26T05:54:07.843Z,12.50
2022-08-26T05:56:37.763Z,12.63
2022-08-26T05:59:04.779Z,12.27
2022-08-26T06:01:32.494Z,12.75
2022-08-26T06:04:03.074Z,12.38
2022-08-26T06:06:32.347Z,12.70
2022-08-26T06:09:00.939Z,13.27
2022-08-26T06:11:30.600Z,13.00
2022-08-26T06:14:03.751Z,13.63
2022-08-26T06:16:34.638Z,13.63
2022-08-26T06:19:03.131Z,13.00
2022-08-26T06:21:35.611Z,13.60
2022-08-26T06:24:27.210Z,13.85
2022-08-26T06:26:56.942Z,14.25
2022-08-26T06:29:25.883Z,13.68
2022-08-26T06:31:54.585Z,13.43
2022-08-26T06:34:23.649Z,14.38
2022-08-26T06:36:58.682Z,14.13
2022-08-26T06:39:25.728Z,15.55
2022-08-26T06:41:53.029Z,14.73
2022-08-26T06:44:21.008Z,14.95
2022-08-26T06:46:50.576Z,15.02
2022-08-26T06:49:18.384Z,14.68
2022-08-26T06:51:54.268Z,14.48
2022-08-26T06:54:21.239Z,14.57
2022-08-26T06:56:48.045Z,14.43
2022-08-26T06:59:16.042Z,14.57
2022-08-26T07:01:44.919Z,17.55
2022-08-26T07:04:14.585Z,14.02
2022-08-26T07:06:48.805Z,15.52
2022-08-26T07:09:16.918Z,13.38
2022-08-26T07:11:44.961Z,13.93
2022-08-26T07:14:11.998Z,13.73
2022-08-26T07:16:39.886Z,14.27
2022-08-26T07:19:10.643Z,15.35
2022-08-26T07:21:40.399Z,14.13
2022-08-26T07:24:07.949Z,13.05
2022-08-26T07:26:35.174Z,15.15
2022-08-26T07:29:03.015Z,13.27
2022-08-26T07:31:39.117Z,13.07
2022-08-26T07:34:07.714Z,12.73
2022-08-26T07:36:35.001Z,13.15
2022-08-26T07:39:01.982Z,12.65
2022-08-26T07:43:56.969Z,12.43
2022-08-26T07:46:26.946Z,12.30
2022-08-26T07:48:54.534Z,12.32
2022-08-26T07:51:22.832Z,11.95
2022-08-26T07:53:52.738Z,13.13
2022-08-26T07:56:21.035Z,12.63
2022-08-26T07:58:51.355Z,12.73
2022-08-26T08:01:19.911Z,12.75
2022-08-26T08:03:46.956Z,12.70
2022-08-26T08:06:18.745Z,12.50
2022-08-26T08:08:46.318Z,13.05
2022-08-26T08:11:14.541Z,12.82
2022-08-26T08:13:41.299Z,12.48
2022-08-26T08:16:12.534Z,12.50
2022-08-26T08:18:40.467Z,12.65
2022-08-26T08:21:23.650Z,12.35
2022-08-26T08:23:55.581Z,12.52
2022-08-26T08:26:24.421Z,13.10
2022-08-26T08:28:54.408Z,12.35
2022-08-26T08:31:54.418Z,13.20
2022-08-26T08:34:12.963Z,12.38
2022-08-26T08:36:39.796Z,12.63
2022-08-26T08:39:07.017Z,13.15
2022-08-26T08:41:44.894Z,12.95
2022-08-26T08:44:20.973Z,12.73
2022-08-26T08:46:56.050Z,12.80
2022-08-26T08:49:25.877Z,12.82
2022-08-26T08:52:00.944Z,12.52
2022-08-26T08:54:30.087Z,12.38
2022-08-26T08:57:03.070Z,12.07
2022-08-26T08:59:35.319Z,12.45
2022-08-26T09:02:22.497Z,12.32
2022-08-26T09:05:17.360Z,12.73
2022-08-26T09:07:58.581Z,12.80
2022-08-26T09:10:34.227Z,12.90
2022-08-26T09:13:08.035Z,12.65
2022-08-26T09:15:58.757Z,12.65
2022-08-26T09:18:38.534Z,12.75
2022-08-26T09:21:09.166Z,12.48
2022-08-26T09:23:40.284Z,13.00
2022-08-26T09:26:16.603Z,12.63
2022-08-26T09:28:53.920Z,12.27
2022-08-26T09:31:34.275Z,12.38
2022-08-26T09:34:23.691Z,12.10
2022-08-26T09:36:51.953Z,12.20
2022-08-26T09:39:34.607Z,12.15
2022-08-26T09:42:20.606Z,12.13
2022-08-26T09:44:56.735Z,11.90
2022-08-26T09:47:30.468Z,11.95
2022-08-26T09:50:02.083Z,12.48
2022-08-26T09:52:28.994Z,12.25
2022-08-26T09:55:12.689Z,12.10
2022-08-26T09:57:54.167Z,12.38
2022-08-26T10:00:27.174Z,11.52
2022-08-26T10:02:57.963Z,11.35
2022-08-26T10:05:45.070Z,11.85
2022-08-26T10:08:27.383Z,11.57
2022-08-26T10:10:56.375Z,10.90
2022-08-26T10:13:35.578Z,11.63
2022-08-26T10:16:16.229Z,12.05
2022-08-26T10:19:00.201Z,11.82
2022-08-26T10:21:35.413Z,12.45
2022-08-26T10:24:03.548Z,11.95
2022-08-26T10:27:07.876Z,11.80
2022-08-26T10:29:41.257Z,12.10
2022-08-26T10:32:16.570Z,11.50
2022-08-26T10:34:43.865Z,11.77
2022-08-26T10:37:18.461Z,11.95
2022-08-26T10:40:27.501Z,11.95
2022-08-26T10:43:11.023Z,11.23
2022-08-26T10:45:44.192Z,10.85
2022-08-26T10:48:21.814Z,11.30
2022-08-26T10:50:49.600Z,11.88
2022-08-26T10:53:44.324Z,11.43
2022-08-26T10:56:41.240Z,11.65
2022-08-26T10:59:43.813Z,11.30
2022-08-26T11:02:40.584Z,11.75
2022-08-26T11:05:23.493Z,11.95
2022-08-26T11:08:04.928Z,12.18
2022-08-26T11:10:50.635Z,11.80
2022-08-26T11:13:18.025Z,11.55
2022-08-26T11:15:55.169Z,12.98
2022-08-26T11:18:43.022Z,13.05
2022-08-26T11:21:41.174Z,12.73
2022-08-26T11:24:08.290Z,14.10
2022-08-26T11:26:55.758Z,12.68
2022-08-26T11:30:01.143Z,12.80
2022-08-26T11:32:34.081Z,12.98
2022-08-26T11:35:13.374Z,12.68
2022-08-26T11:37:40.606Z,13.05
2022-08-26T11:40:12.494Z,12.88
2022-08-26T11:42:54.350Z,14.02
2022-08-26T11:45:43.422Z,14.95
2022-08-26T11:48:18.860Z,17.25
2022-08-26T11:50:57.488Z,11.98
2022-08-26T11:53:26.161Z,11.32
2022-08-26T11:55:55.749Z,11.57
2022-08-26T11:58:24.560Z,11.43
2022-08-26T12:00:58.031Z,11.80
2022-08-26T12:03:37.588Z,12.85
2022-08-26T12:06:15.328Z,13.38
2022-08-26T12:08:44.901Z,13.70
2022-08-26T12:11:20.948Z,12.82
2022-08-26T12:13:56.318Z,13.05
2022-08-26T12:16:27.863Z,13.95
2022-08-26T12:18:55.397Z,13.68
2022-08-26T12:21:29.312Z,14.27
2022-08-26T12:24:03.157Z,13.98
2022-08-26T12:26:35.973Z,13.40
2022-08-26T12:29:12.704Z,13.40
2022-08-26T12:32:13.185Z,13.32
2022-08-26T12:34:45.118Z,13.65
2022-08-26T12:37:14.072Z,12.98
2022-08-26T12:39:44.494Z,12.65
2022-08-26T12:42:17.045Z,12.65
2022-08-26T12:44:53.126Z,12.52
2022-08-26T12:47:41.870Z,12.80
2022-08-26T12:50:21.224Z,12.73
2022-08-26T12:53:08.997Z,12.85
2022-08-26T12:55:43.914Z,12.85
2022-08-26T12:58:16.753Z,12.70
2022-08-26T13:00:51.856Z,12.20
2022-08-26T13:03:32.547Z,12.73
2022-08-26T13:06:29.951Z,12.52
2022-08-26T13:09:02.744Z,12.40
2022-08-26T13:11:39.904Z,12.23
2022-08-26T13:14:23.633Z,12.23
2022-08-26T13:16:51.360Z,12.68
2022-08-26T13:19:24.112Z,13.20
2022-08-26T13:21:53.926Z,13.75
2022-08-26T13:24:26.048Z,13.73
2022-08-26T13:26:52.904Z,13.73
2022-08-26T13:29:20.294Z,13.88
2022-08-26T13:31:50.096Z,13.90
2022-08-26T13:34:20.113Z,13.63
2022-08-26T13:36:48.103Z,14.35
2022-08-26T13:39:15.026Z,14.75
2022-08-26T13:41:43.190Z,14.48
2022-08-26T13:44:11.036Z,13.82
2022-08-26T13:46:38.200Z,14.10
2022-08-26T13:49:05.468Z,14.00
2022-08-26T13:51:32.990Z,14.88
2022-08-26T13:54:00.558Z,14.38
2022-08-26T13:56:29.566Z,13.95
2022-08-26T13:58:57.242Z,13.93
2022-08-26T14:01:24.481Z,14.45
2022-08-26T14:03:51.485Z,14.15
2022-08-26T14:06:18.880Z,14.00
2022-08-26T14:08:45.901Z,14.32
2022-08-26T14:11:13.006Z,13.43
2022-08-26T14:13:39.754Z,14.27
2022-08-26T14:16:11.863Z,14.18
2022-08-26T14:18:42.534Z,15.05
2022-08-26T14:21:13.455Z,14.40
2022-08-26T14:23:41.368Z,14.23
2022-08-26T14:26:10.869Z,15.55
2022-08-26T14:28:42.685Z,13.75
2022-08-26T14:31:10.182Z,12.68
2022-08-26T14:33:38.207Z,12.95
2022-08-26T14:36:24.955Z,11.90
2022-08-26T14:38:51.859Z,11.93
2022-08-26T14:41:20.022Z,13.07
2022-08-26T14:43:57.742Z,13.13
2022-08-26T14:46:28.994Z,12.48
2022-08-26T14:49:01.615Z,12.15
2022-08-26T14:51:29.663Z,11.88
2022-08-26T14:54:14.615Z,12.23
2022-08-26T14:56:48.789Z,11.10
2022-08-26T14:59:22.217Z,11.52
2022-08-26T15:01:50.049Z,11.30
2022-08-26T15:04:17.664Z,11.35
2022-08-26T15:06:44.810Z,12.00
2022-08-26T15:09:12.574Z,13.32
2022-08-26T15:11:39.664Z,17.55
2022-08-26T15:14:06.499Z,21.65
2022-08-26T15:16:33.747Z,17.88
2022-08-26T15:19:04.001Z,18.88
2022-08-26T15:21:32.790Z,21.85
2022-08-26T15:24:01.048Z,30.63
2022-08-26T15:26:30.208Z,16.63
2022-08-26T15:29:00.849Z,25.48
2022-08-26T15:31:32.113Z,27.02
2022-08-26T15:34:00.605Z,18.50
2022-08-26T15:36:28.881Z,21.70
2022-08-26T15:38:56.755Z,20.50
2022-08-26T15:41:24.417Z,17.73
2022-08-26T15:43:51.642Z,19.10
2022-08-26T15:46:19.574Z,20.95
2022-08-26T15:48:46.580Z,19.33
2022-08-26T15:51:21.083Z,30.13
2022-08-26T15:53:50.098Z,31.63
2022-08-26T15:56:17.195Z,24.33
2022-08-26T15:58:44.938Z,20.98
2022-08-26T16:01:11.933Z,19.77
2022-08-26T16:03:39.598Z,22.23
2022-08-26T16:06:07.663Z,25.50
2022-08-26T16:08:36.795Z,26.20
2022-08-26T16:11:04.253Z,29.15
2022-08-26T16:13:39.520Z,27.77
2022-08-26T16:16:08.458Z,31.13
2022-08-26T16:18:35.611Z,35.97
2022-08-26T16:21:12.738Z,34.25
2022-08-26T16:23:43.271Z,30.48
2022-08-26T16:26:19.282Z,35.00
2022-08-26T16:28:46.037Z,35.67
2022-08-26T16:31:13.322Z,39.55
2022-08-26T16:33:40.665Z,44.30
2022-08-26T16:36:08.609Z,45.13
2022-08-26T16:38:37.520Z,41.10
2022-08-26T16:41:05.320Z,40.85
2022-08-26T16:43:32.335Z,42.20
2022-08-26T16:45:59.343Z,37.92
2022-08-26T16:48:27.059Z,42.78
2022-08-26T16:50:55.522Z,45.17
2022-08-26T16:53:23.349Z,44.65
2022-08-26T16:55:50.882Z,53.47
2022-08-26T16:58:18.832Z,48.33
2022-08-26T17:00:46.077Z,44.72
2022-08-26T17:03:13.206Z,46.42
2022-08-26T17:05:40.305Z,46.45
2022-08-26T17:08:08.621Z,47.58
2022-08-26T17:10:35.698Z,48.25
2022-08-26T17:13:02.581Z,67.53
2022-08-26T17:15:29.643Z,57.10
2022-08-26T17:17:56.805Z,47.72
2022-08-26T17:20:24.593Z,48.85
2022-08-26T17:22:53.859Z,52.15
2022-08-26T17:25:28.345Z,57.38
2022-08-26T17:30:24.537Z,51.20
2022-08-26T17:32:52.354Z,54.92
2022-08-26T17:35:19.627Z,56.08
2022-08-26T17:37:46.912Z,65.43
2022-08-26T17:40:18.593Z,78.72
2022-08-26T17:42:45.838Z,74.25
2022-08-26T17:45:13.244Z,50.25
2022-08-26T17:47:41.035Z,62.25
2022-08-26T17:50:11.339Z,66.28
2022-08-26T17:52:38.476Z,65.00
2022-08-26T17:55:06.856Z,64.45
2022-08-26T17:57:40.451Z,64.00
2022-08-26T18:00:12.396Z,71.97
2022-08-26T18:02:39.827Z,70.90
2022-08-26T18:05:08.262Z,70.00
2022-08-26T18:07:43.800Z,74.40
2022-08-26T18:10:13.488Z,75.30
2022-08-26T18:12:40.983Z,75.40
2022-08-26T18:15:08.855Z,75.65
2022-08-26T18:17:35.692Z,76.40
2022-08-26T18:20:02.640Z,79.35
2022-08-26T18:22:29.707Z,79.75
2022-08-26T18:24:58.814Z,90.18
2022-08-26T18:27:26.318Z,77.18
2022-08-26T18:29:53.059Z,83.50
2022-08-26T18:32:19.764Z,83.97
2022-08-26T18:34:46.463Z,80.85
2022-08-26T18:39:41.660Z,83.18
2022-08-26T18:42:08.861Z,73.47
2022-08-26T18:44:35.757Z,72.25
2022-08-26T18:47:02.624Z,73.80
2022-08-26T18:49:29.441Z,77.82
2022-08-26T18:51:56.238Z,111.07
2022-08-26T18:54:23.078Z,86.43
2022-08-26T18:56:49.965Z,84.25
2022-08-26T18:59:17.422Z,106.75
2022-08-26T19:01:45.218Z,160.57
2022-08-26T19:04:15.394Z,100.25
2022-08-26T19:06:43.440Z,99.43
2022-08-26T19:09:12.002Z,111.43
2022-08-26T19:11:42.968Z,87.30
2022-08-26T19:14:13.603Z,126.65
2022-08-26T19:16:43.004Z,117.57
2022-08-26T19:19:10.163Z,109.82
2022-08-26T19:21:37.648Z,114.63
2022-08-26T19:24:07.348Z,130.10
2022-08-26T19:26:34.406Z,117.40
2022-08-26T19:29:01.594Z,156.57
2022-08-26T19:31:28.435Z,114.55
2022-08-26T19:33:56.688Z,150.82
2022-08-26T19:36:25.374Z,126.38
2022-08-26T19:38:53.157Z,114.35
2022-08-26T19:41:25.467Z,120.60
2022-08-26T19:43:58.712Z,125.32
2022-08-26T19:46:26.671Z,131.05
2022-08-26T19:48:55.700Z,121.63
2022-08-26T19:51:25.980Z,113.03
2022-08-26T19:53:54.617Z,105.93
2022-08-26T19:56:22.102Z,106.82
2022-08-26T19:58:49.161Z,110.90
2022-08-26T20:01:17.025Z,115.43
2022-08-26T20:03:44.825Z,148.80
2022-08-26T20:06:13.379Z,108.80
2022-08-26T20:08:41.948Z,115.10
2022-08-26T20:11:15.916Z,106.75
2022-08-26T20:13:44.254Z,106.07
2022-08-26T20:16:12.054Z,108.38
2022-08-26T20:18:59.649Z,110.03
2022-08-26T20:21:28.024Z,127.82
2022-08-26T20:23:58.391Z,128.45
2022-08-26T20:26:28.072Z,110.43
2022-08-26T20:28:55.608Z,124.55
2022-08-26T20:31:22.601Z,147.75
2022-08-26T20:33:50.552Z,169.65
2022-08-26T20:36:20.265Z,127.13
2022-08-26T20:38:48.910Z,125.97
2022-08-26T20:41:16.986Z,144.90
2022-08-26T20:43:44.098Z,146.00
2022-08-26T20:46:17.933Z,140.10
2022-08-26T20:48:45.835Z,132.80
2022-08-26T20:51:12.650Z,152.65
2022-08-26T20:53:39.711Z,153.18
2022-08-26T20:56:08.943Z,211.35
2022-08-26T20:58:35.916Z,170.90
2022-08-26T21:01:07.553Z,182.32
2022-08-26T21:03:35.832Z,197.57
2022-08-26T21:06:03.576Z,190.95
2022-08-26T21:08:33.173Z,174.02
2022-08-26T21:11:00.664Z,200.95
2022-08-26T21:13:29.042Z,188.57
2022-08-26T21:16:02.891Z,188.45
2022-08-26T21:18:29.851Z,212.27
2022-08-26T21:20:56.582Z,269.30
2022-08-26T21:23:27.456Z,176.30
2022-08-26T21:25:55.953Z,176.65
2022-08-26T21:28:23.411Z,163.93
2022-08-26T21:30:50.176Z,173.02
2022-08-26T21:33:16.887Z,174.00
2022-08-26T21:35:51.936Z,176.70
2022-08-26T21:38:20.154Z,187.40
2022-08-26T21:40:59.220Z,208.85
2022-08-26T21:43:35.165Z,264.60
2022-08-26T21:46:14.356Z,152.57
2022-08-26T21:48:45.674Z,153.50
2022-08-26T21:51:17.018Z,156.30
2022-08-26T21:53:43.779Z,163.65
2022-08-26T21:56:16.347Z,177.35
2022-08-26T21:58:43.560Z,169.50
2022-08-26T22:01:16.432Z,223.13
2022-08-26T22:03:47.464Z,265.00
2022-08-26T22:06:17.429Z,244.07
2022-08-26T22:08:44.304Z,193.60
2022-08-26T22:11:11.649Z,250.25
2022-08-26T22:13:40.236Z,218.38
2022-08-26T22:16:07.511Z,174.45
2022-08-26T22:18:35.540Z,225.50
2022-08-26T22:21:08.862Z,202.93
2022-08-26T22:23:37.008Z,176.13
2022-08-26T22:26:05.914Z,260.92
2022-08-26T22:28:32.776Z,204.85
2022-08-26T22:31:00.141Z,257.85
2022-08-26T22:33:26.941Z,225.35
2022-08-26T22:35:54.296Z,257.35
2022-08-26T22:38:23.739Z,237.27
2022-08-26T22:40:56.116Z,201.90
2022-08-26T22:43:24.789Z,182.43
2022-08-26T22:45:52.968Z,174.35
2022-08-26T22:48:25.100Z,196.30
2022-08-26T22:50:58.242Z,187.38
2022-08-26T22:53:27.201Z,183.68
2022-08-26T22:55:54.406Z,201.70
2022-08-26T22:58:23.063Z,204.82
2022-08-26T23:00:57.725Z,235.23
2022-08-26T23:03:26.606Z,215.35
2022-08-26T23:05:53.873Z,200.30
2022-08-26T23:08:21.029Z,186.55
2022-08-26T23:10:48.381Z,176.85
2022-08-26T23:13:15.909Z,155.20
2022-08-26T23:15:44.744Z,164.93
2022-08-26T23:18:13.407Z,188.93
2022-08-26T23:20:40.994Z,219.15
2022-08-26T23:23:08.212Z,235.98
2022-08-26T23:25:35.372Z,200.23
2022-08-26T23:28:02.805Z,153.52
2022-08-26T23:30:31.757Z,217.98
2022-08-26T23:32:59.082Z,218.50
2022-08-26T23:35:26.177Z,221.57
2022-08-26T23:37:53.554Z,187.23
2022-08-26T23:40:32.823Z,219.20
2022-08-26T23:43:03.332Z,190.55
2022-08-26T23:45:31.850Z,192.23
2022-08-26T23:47:59.167Z,200.35
2022-08-26T23:50:48.437Z,186.98
2022-08-26T23:53:19.893Z,200.70
2022-08-26T23:55:48.315Z,211.10
2022-08-26T23:58:17.362Z,226.15
